Time;durP1;ratioP1;P1;durP2;ratioP2;P2;SDS_P1;SDS_P2;PMS_P1;PMS_P2;Temp;Humidity;BMP_temperature;BMP_pressure;BME280_temperature;BME280_humidity;BME280_pressure;Samples;Min_cycle;Max_cycle;Signal;HPM_P1;HPM_P2
2023/04/09 00:02:09;;;;;;;1.10;1.00;;;;;;;;;;5078441;28;20541;-78
2023/04/09 00:04:36;;;;;;;1.00;0.90;;;;;;;;;;5079777;28;20444;-78
2023/04/09 00:07:03;;;;;;;1.15;1.05;;;;;;;;;;5083801;28;20453;-79
2023/04/09 00:09:30;;;;;;;0.70;0.60;;;;;;;;;;5086393;28;20223;-78
2023/04/09 00:11:58;;;;;;;0.70;0.60;;;;;;;;;;5079479;28;20480;-80
2023/04/09 00:14:25;;;;;;;0.70;0.70;;;;;;;;;;5080490;28;20919;-80
2023/04/09 00:16:53;;;;;;;0.73;0.73;;;;;;;;;;5083708;28;20231;-78
2023/04/09 00:19:19;;;;;;;0.70;0.70;;;;;;;;;;5078894;28;20212;-78
2023/04/09 00:21:47;;;;;;;0.70;0.70;;;;;;;;;;5085447;28;20496;-80
2023/04/09 00:24:14;;;;;;;0.70;0.60;;;;;;;;;;5079718;28;20208;-79
2023/04/09 00:26:40;;;;;;;0.80;0.80;;;;;;;;;;5077673;28;20197;-79
2023/04/09 00:29:07;;;;;;;0.70;0.60;;;;;;;;;;5080827;28;20193;-79
2023/04/09 00:31:35;;;;;;;0.70;0.70;;;;;;;;;;5069740;28;20212;-80
2023/04/09 00:34:01;;;;;;;0.70;0.70;;;;;;;;;;5076660;28;20209;-77
2023/04/09 00:36:28;;;;;;;1.42;1.33;;;;;;;;;;5082867;28;20216;-77
2023/04/09 00:38:55;;;;;;;1.33;1.23;;;;;;;;;;5079025;28;20267;-79
2023/04/09 00:41:22;;;;;;;0.70;0.70;;;;;;;;;;5079731;28;20214;-78
2023/04/09 00:43:48;;;;;;;15.98;1.95;;;;;;;;;;5078588;28;20192;-78
2023/04/09 00:46:16;;;;;;;0.70;0.60;;;;;;;;;;5076372;28;20235;-81
2023/04/09 00:48:44;;;;;;;0.65;0.60;;;;;;;;;;5079640;28;20196;-80
2023/04/09 00:51:11;;;;;;;0.70;0.60;;;;;;;;;;5078800;28;20188;-80
2023/04/09 00:53:37;;;;;;;1.15;1.05;;;;;;;;;;5070025;28;20680;-80
2023/04/09 00:56:05;;;;;;;0.70;0.68;;;;;;;;;;5082939;28;20200;-81
2023/04/09 00:58:31;;;;;;;0.70;0.70;;;;;;;;;;5078391;28;20291;-80
2023/04/09 01:00:58;;;;;;;0.60;0.60;;;;;;;;;;5075279;28;20250;-80
2023/04/09 01:03:25;;;;;;;0.70;0.60;;;;;;;;;;5077922;28;20283;-80
2023/04/09 01:05:59;;;;;;;0.80;0.80;;;;;;;;;;5081637;28;20283;-79
2023/04/09 01:08:30;;;;;;;0.60;0.60;;;;;;;;;;5086412;28;20247;-80
2023/04/09 01:11:01;;;;;;;0.70;0.70;;;;;;;;;;5062148;28;20200;-80
2023/04/09 01:13:34;;;;;;;0.60;0.60;;;;;;;;;;5079823;28;20291;-80
2023/04/09 01:16:02;;;;;;;0.70;0.70;;;;;;;;;;5066715;28;20197;-80
2023/04/09 01:18:34;;;;;;;3.55;3.35;;;;;;;;;;5076076;28;20266;-80
2023/04/09 01:21:05;;;;;;;3.63;1.83;;;;;;;;;;5079479;28;20611;-81
2023/04/09 01:23:36;;;;;;;1.88;1.77;;;;;;;;;;5081372;28;20192;-79
2023/04/09 01:26:08;;;;;;;0.70;0.63;;;;;;;;;;5081605;28;20192;-80
2023/04/09 01:28:51;;;;;;;0.80;0.80;;;;;;;;;;5079182;28;20181;-79
2023/04/09 01:31:20;;;;;;;0.70;0.70;;;;;;;;;;5071994;28;20728;-79
2023/04/09 01:33:46;;;;;;;1.83;1.73;;;;;;;;;;5059429;28;20208;-80
2023/04/09 01:36:14;;;;;;;0.70;0.70;;;;;;;;;;5080330;28;20197;-79
2023/04/09 01:38:41;;;;;;;0.70;0.60;;;;;;;;;;5073084;28;20311;-77
2023/04/09 01:41:16;;;;;;;1.15;1.05;;;;;;;;;;5075075;28;20205;-80
2023/04/09 01:43:43;;;;;;;0.68;0.60;;;;;;;;;;5076612;28;20294;-82
2023/04/09 01:46:11;;;;;;;0.70;0.70;;;;;;;;;;5077002;28;20287;-78
2023/04/09 01:48:39;;;;;;;0.70;0.70;;;;;;;;;;5086494;28;20227;-80
2023/04/09 01:51:05;;;;;;;0.70;0.60;;;;;;;;;;5076965;28;20216;-78
2023/04/09 01:53:32;;;;;;;0.70;0.70;;;;;;;;;;5070452;28;20211;-78
2023/04/09 01:56:00;;;;;;;2.10;1.40;;;;;;;;;;5082290;28;20211;-80
2023/04/09 01:58:26;;;;;;;0.60;0.60;;;;;;;;;;5082625;28;20295;-79
2023/04/09 02:00:58;;;;;;;0.70;0.70;;;;;;;;;;5082597;28;20262;-79
2023/04/09 02:03:30;;;;;;;0.65;0.60;;;;;;;;;;5084546;28;20196;-79
2023/04/09 02:06:02;;;;;;;1.00;1.00;;;;;;;;;;5062228;28;20226;-79
2023/04/09 02:08:29;;;;;;;1.52;1.45;;;;;;;;;;5080898;28;20244;-77
2023/04/09 02:10:57;;;;;;;1.70;1.60;;;;;;;;;;5089423;28;20208;-78
2023/04/09 02:13:26;;;;;;;0.70;0.70;;;;;;;;;;5069027;28;20203;-79
2023/04/09 02:15:55;;;;;;;0.70;0.70;;;;;;;;;;5082043;28;20291;-80
2023/04/09 02:18:23;;;;;;;0.60;0.60;;;;;;;;;;5081556;28;20212;-79
2023/04/09 02:20:52;;;;;;;0.60;0.60;;;;;;;;;;5080489;28;20569;-79
2023/04/09 02:23:19;;;;;;;0.60;0.60;;;;;;;;;;5075368;28;20221;-79
2023/04/09 02:25:45;;;;;;;3.13;2.92;;;;;;;;;;5090871;28;20676;-79
2023/04/09 02:28:12;;;;;;;0.70;0.70;;;;;;;;;;5080710;28;20287;-80
2023/04/09 02:30:39;;;;;;;0.70;0.70;;;;;;;;;;5082492;28;20196;-78
2023/04/09 02:33:06;;;;;;;0.60;0.60;;;;;;;;;;5066004;28;20197;-79
2023/04/09 02:35:33;;;;;;;0.60;0.60;;;;;;;;;;5084880;28;20218;-80
2023/04/09 02:38:01;;;;;;;0.70;0.70;;;;;;;;;;5082908;28;20224;-81
2023/04/09 02:40:28;;;;;;;0.80;0.80;;;;;;;;;;5077744;28;20239;-79
2023/04/09 02:42:54;;;;;;;0.60;0.60;;;;;;;;;;5078574;28;20206;-80
2023/04/09 02:45:21;;;;;;;0.60;0.60;;;;;;;;;;5082363;28;20666;-79
2023/04/09 02:47:48;;;;;;;0.60;0.60;;;;;;;;;;5081017;28;20211;-80
2023/04/09 02:50:15;;;;;;;0.60;0.60;;;;;;;;;;5082406;28;20558;-80
2023/04/09 02:52:47;;;;;;;0.70;0.70;;;;;;;;;;5078445;28;20228;-79
2023/04/09 02:55:15;;;;;;;0.80;0.80;;;;;;;;;;5080260;28;20195;-79
2023/04/09 02:57:42;;;;;;;0.60;0.60;;;;;;;;;;5080825;28;20200;-78
2023/04/09 03:00:09;;;;;;;0.60;0.60;;;;;;;;;;5079822;28;20497;-79
2023/04/09 03:02:36;;;;;;;0.60;0.60;;;;;;;;;;5083094;28;20232;-77
2023/04/09 03:05:03;;;;;;;0.60;0.60;;;;;;;;;;5089350;28;20192;-78
2023/04/09 03:07:30;;;;;;;0.80;0.80;;;;;;;;;;5088327;28;20231;-79
2023/04/09 03:09:56;;;;;;;1.15;1.05;;;;;;;;;;5081659;28;20219;-79
2023/04/09 03:12:24;;;;;;;0.60;0.60;;;;;;;;;;5080061;28;20207;-79
2023/04/09 03:14:51;;;;;;;0.70;0.60;;;;;;;;;;5088417;28;20200;-77
2023/04/09 03:17:18;;;;;;;0.70;0.70;;;;;;;;;;5082096;28;20241;-81
2023/04/09 03:19:45;;;;;;;4.40;2.35;;;;;;;;;;5084281;28;20216;-78
2023/04/09 03:22:13;;;;;;;0.80;0.80;;;;;;;;;;5070860;28;20298;-81
2023/04/09 03:24:40;;;;;;;1.77;1.67;;;;;;;;;;5082848;28;20231;-78
2023/04/09 03:27:07;;;;;;;0.60;0.60;;;;;;;;;;5088857;28;20258;-80
2023/04/09 03:29:35;;;;;;;0.60;0.60;;;;;;;;;;5079209;28;20214;-78
2023/04/09 03:32:02;;;;;;;3.65;1.50;;;;;;;;;;5080353;28;20234;-81
2023/04/09 03:34:29;;;;;;;0.63;0.63;;;;;;;;;;5081711;28;20233;-77
2023/04/09 03:36:56;;;;;;;2.80;2.55;;;;;;;;;;5071558;28;20304;-81
2023/04/09 03:39:30;;;;;;;0.60;0.60;;;;;;;;;;5083515;28;20320;-79
2023/04/09 03:41:57;;;;;;;0.60;0.60;;;;;;;;;;5078905;28;20196;-79
2023/04/09 03:44:28;;;;;;;0.70;0.70;;;;;;;;;;5080125;28;20208;-80
2023/04/09 03:47:09;;;;;;;0.70;0.70;;;;;;;;;;5084732;28;20212;-78
2023/04/09 03:49:37;;;;;;;0.70;0.70;;;;;;;;;;5077447;28;20200;-80
2023/04/09 03:52:15;;;;;;;0.70;0.70;;;;;;;;;;5069995;28;20687;-81
2023/04/09 03:54:45;;;;;;;0.60;0.60;;;;;;;;;;5086150;28;20216;-79
2023/04/09 03:57:17;;;;;;;0.70;0.60;;;;;;;;;;5077663;28;20212;-77
2023/04/09 03:59:47;;;;;;;0.60;0.60;;;;;;;;;;5069793;28;20223;-79
2023/04/09 04:02:18;;;;;;;0.80;0.80;;;;;;;;;;5080344;28;20593;-81
2023/04/09 04:04:54;;;;;;;0.63;0.60;;;;;;;;;;5059693;28;20227;-80
2023/04/09 04:07:23;;;;;;;0.65;0.65;;;;;;;;;;5079015;28;20227;-77
2023/04/09 04:10:07;;;;;;;0.70;0.70;;;;;;;;;;5088146;28;20192;-80
2023/04/09 04:12:34;;;;;;;1.60;1.50;;;;;;;;;;5077960;28;20300;-80
2023/04/09 04:15:08;;;;;;;0.70;0.70;;;;;;;;;;5065982;28;20208;-80
2023/04/09 04:17:50;;;;;;;0.70;0.65;;;;;;;;;;5066072;28;20505;-79
2023/04/09 04:20:25;;;;;;;0.68;0.68;;;;;;;;;;5081806;28;20212;-80
2023/04/09 04:23:03;;;;;;;0.98;0.98;;;;;;;;;;5075535;28;20616;-79
2023/04/09 04:25:31;;;;;;;0.60;0.60;;;;;;;;;;5084156;28;20208;-81
2023/04/09 04:27:59;;;;;;;0.75;0.75;;;;;;;;;;5080446;28;20204;-80
2023/04/09 04:30:35;;;;;;;0.60;0.60;;;;;;;;;;5071075;28;20720;-79
2023/04/09 04:33:06;;;;;;;0.60;0.60;;;;;;;;;;5073892;28;20204;-80
2023/04/09 04:35:41;;;;;;;2.10;1.35;;;;;;;;;;5073120;28;20204;-79
2023/04/09 04:38:20;;;;;;;0.60;0.60;;;;;;;;;;5070994;28;20220;-79
2023/04/09 04:40:48;;;;;;;0.70;0.70;;;;;;;;;;5078462;28;20227;-80
2023/04/09 04:43:16;;;;;;;0.60;0.60;;;;;;;;;;5076826;28;20209;-79
2023/04/09 04:45:42;;;;;;;0.70;0.70;;;;;;;;;;5086074;28;20207;-79
2023/04/09 04:48:12;;;;;;;0.80;0.80;;;;;;;;;;5085816;28;20204;-80
2023/04/09 04:50:38;;;;;;;0.70;0.60;;;;;;;;;;5078617;28;20287;-79
2023/04/09 04:53:09;;;;;;;0.70;0.70;;;;;;;;;;5061463;28;20219;-80
2023/04/09 04:55:44;;;;;;;0.85;0.85;;;;;;;;;;5083150;28;20627;-79
2023/04/09 04:58:13;;;;;;;0.70;0.70;;;;;;;;;;5068998;28;20217;-81
2023/04/09 05:00:44;;;;;;;0.85;0.85;;;;;;;;;;5069204;28;20640;-79
2023/04/09 05:03:14;;;;;;;0.70;0.70;;;;;;;;;;5071093;28;20246;-79
2023/04/09 05:05:54;;;;;;;1.38;1.27;;;;;;;;;;5079660;28;20204;-79
2023/04/09 05:08:22;;;;;;;0.60;0.60;;;;;;;;;;5084341;28;20224;-78
2023/04/09 05:10:54;;;;;;;0.70;0.70;;;;;;;;;;5085143;28;20660;-79
2023/04/09 05:13:26;;;;;;;0.60;0.60;;;;;;;;;;5072892;28;20683;-80
2023/04/09 05:15:53;;;;;;;0.80;0.80;;;;;;;;;;5079963;28;20273;-79
2023/04/09 05:18:21;;;;;;;0.70;0.70;;;;;;;;;;5077007;28;20204;-79
2023/04/09 05:20:48;;;;;;;0.60;0.60;;;;;;;;;;5076044;28;20530;-80
2023/04/09 05:23:15;;;;;;;2.38;2.17;;;;;;;;;;5064379;28;20258;-79
2023/04/09 05:25:47;;;;;;;0.80;0.80;;;;;;;;;;5085942;28;20573;-81
2023/04/09 05:28:22;;;;;;;0.77;0.77;;;;;;;;;;5087498;28;20283;-80
2023/04/09 05:31:00;;;;;;;0.70;0.70;;;;;;;;;;5080468;28;20204;-80
2023/04/09 05:33:36;;;;;;;0.60;0.60;;;;;;;;;;5082748;28;20522;-80
2023/04/09 05:36:07;;;;;;;0.60;0.60;;;;;;;;;;5074888;28;20212;-81
2023/04/09 05:38:34;;;;;;;0.70;0.70;;;;;;;;;;5090977;28;20258;-80
2023/04/09 05:41:01;;;;;;;0.60;0.60;;;;;;;;;;5064467;28;20256;-81
2023/04/09 05:43:28;;;;;;;0.70;0.70;;;;;;;;;;5083095;28;20325;-81
2023/04/09 05:45:54;;;;;;;0.60;0.60;;;;;;;;;;5080669;28;20220;-80
2023/04/09 05:48:21;;;;;;;0.60;0.60;;;;;;;;;;5083705;28;20291;-80
2023/04/09 05:50:51;;;;;;;0.60;0.60;;;;;;;;;;5081063;28;20227;-80
2023/04/09 05:53:24;;;;;;;0.60;0.50;;;;;;;;;;5066421;28;20227;-80
2023/04/09 05:55:51;;;;;;;0.60;0.57;;;;;;;;;;5084813;28;20209;-80
2023/04/09 05:58:21;;;;;;;0.60;0.60;;;;;;;;;;5069003;28;20205;-80
2023/04/09 06:00:50;;;;;;;0.60;0.60;;;;;;;;;;5088318;28;20220;-80
2023/04/09 06:03:18;;;;;;;0.60;0.60;;;;;;;;;;5083279;28;20519;-79
2023/04/09 06:05:45;;;;;;;0.60;0.50;;;;;;;;;;5088260;28;20208;-80
2023/04/09 06:08:13;;;;;;;0.60;0.60;;;;;;;;;;5069339;28;20270;-79
2023/04/09 06:10:40;;;;;;;0.65;0.65;;;;;;;;;;5088139;28;20363;-80
2023/04/09 06:13:08;;;;;;;0.60;0.60;;;;;;;;;;5078878;28;20211;-79
2023/04/09 06:15:36;;;;;;;0.60;0.60;;;;;;;;;;5077868;28;20536;-80
2023/04/09 06:18:03;;;;;;;3.90;1.30;;;;;;;;;;5083709;28;20431;-79
2023/04/09 06:20:30;;;;;;;0.60;0.60;;;;;;;;;;5082698;28;20978;-81
2023/04/09 06:22:57;;;;;;;0.60;0.60;;;;;;;;;;5081765;28;20496;-81
2023/04/09 06:25:25;;;;;;;0.60;0.50;;;;;;;;;;5081231;28;20554;-79
2023/04/09 06:27:52;;;;;;;0.60;0.60;;;;;;;;;;5080395;28;20458;-80
2023/04/09 06:30:18;;;;;;;1.27;1.17;;;;;;;;;;5077872;28;20516;-79
2023/04/09 06:32:47;;;;;;;0.60;0.60;;;;;;;;;;5083847;28;20978;-80
2023/04/09 06:35:20;;;;;;;0.60;0.60;;;;;;;;;;5084961;28;20433;-79
2023/04/09 06:37:46;;;;;;;0.70;0.70;;;;;;;;;;5081675;28;20961;-80
2023/04/09 06:40:13;;;;;;;0.60;0.60;;;;;;;;;;5059710;28;20528;-79
2023/04/09 06:42:41;;;;;;;0.80;0.80;;;;;;;;;;5078900;28;20468;-79
2023/04/09 06:45:16;;;;;;;3.00;2.77;;;;;;;;;;5075580;28;20457;-80
2023/04/09 06:47:43;;;;;;;0.70;0.60;;;;;;;;;;5080262;28;20457;-80
2023/04/09 06:50:10;;;;;;;0.70;0.70;;;;;;;;;;5082824;28;20426;-79
2023/04/09 06:52:37;;;;;;;0.70;0.67;;;;;;;;;;5078225;28;20555;-80
2023/04/09 06:55:04;;;;;;;2.40;1.33;;;;;;;;;;5084667;28;20963;-79
2023/04/09 06:57:31;;;;;;;0.90;0.90;;;;;;;;;;5080031;28;20450;-80
2023/04/09 06:59:59;;;;;;;0.90;0.90;;;;;;;;;;5076166;28;20486;-79
2023/04/09 07:02:26;;;;;;;0.70;0.60;;;;;;;;;;5084064;28;20848;-79
2023/04/09 07:04:53;;;;;;;0.70;0.70;;;;;;;;;;5080184;28;20951;-78
2023/04/09 07:07:21;;;;;;;0.63;0.60;;;;;;;;;;5078831;28;20468;-77
2023/04/09 07:09:52;;;;;;;0.70;0.60;;;;;;;;;;5072095;28;20472;-78
2023/04/09 07:12:25;;;;;;;0.70;0.70;;;;;;;;;;5081397;28;20449;-78
2023/04/09 07:14:51;;;;;;;0.70;0.70;;;;;;;;;;5080007;28;20440;-78
2023/04/09 07:17:19;;;;;;;0.77;0.77;;;;;;;;;;5078578;28;21178;-77
2023/04/09 07:19:46;;;;;;;0.70;0.70;;;;;;;;;;5074977;28;20463;-77
2023/04/09 07:22:13;;;;;;;0.83;0.83;;;;;;;;;;5077362;28;20476;-77
2023/04/09 07:24:40;;;;;;;0.70;0.70;;;;;;;;;;5062267;28;20442;-79
2023/04/09 07:27:07;;;;;;;0.70;0.70;;;;;;;;;;5078908;28;20440;-77
2023/04/09 07:29:33;;;;;;;1.07;1.00;;;;;;;;;;5084633;28;20508;-76
2023/04/09 07:32:01;;;;;;;2.73;1.40;;;;;;;;;;5081512;28;20427;-78
2023/04/09 07:34:29;;;;;;;0.73;0.73;;;;;;;;;;5080767;28;20446;-77
2023/04/09 07:36:56;;;;;;;0.80;0.80;;;;;;;;;;5080486;28;20469;-78
2023/04/09 07:39:23;;;;;;;0.70;0.70;;;;;;;;;;5072545;28;20480;-78
2023/04/09 07:41:50;;;;;;;0.70;0.70;;;;;;;;;;5077509;28;20600;-80
2023/04/09 07:44:17;;;;;;;0.70;0.70;;;;;;;;;;5080191;28;20873;-79
2023/04/09 07:46:44;;;;;;;1.27;0.87;;;;;;;;;;5069297;28;20477;-77
2023/04/09 07:49:10;;;;;;;0.70;0.70;;;;;;;;;;5079134;28;20900;-77
2023/04/09 07:51:39;;;;;;;0.80;0.80;;;;;;;;;;5074727;28;20475;-77
2023/04/09 07:54:05;;;;;;;1.47;1.30;;;;;;;;;;5081050;28;20446;-79
2023/04/09 07:56:32;;;;;;;1.17;1.07;;;;;;;;;;5079213;28;20803;-79
2023/04/09 07:58:59;;;;;;;0.80;0.80;;;;;;;;;;5082159;28;20430;-76
2023/04/09 08:01:26;;;;;;;1.00;0.90;;;;;;;;;;5079361;28;20564;-76
2023/04/09 08:03:52;;;;;;;0.70;0.70;;;;;;;;;;5078439;28;20434;-75
2023/04/09 08:06:19;;;;;;;2.37;1.17;;;;;;;;;;5079966;28;20445;-76
2023/04/09 08:08:47;;;;;;;0.77;0.77;;;;;;;;;;5060883;28;20442;-76
2023/04/09 08:11:15;;;;;;;6.73;3.17;;;;;;;;;;5081812;28;20514;-78
2023/04/09 08:13:41;;;;;;;1.30;1.20;;;;;;;;;;5079346;28;20468;-78
2023/04/09 08:16:09;;;;;;;0.70;0.70;;;;;;;;;;5081239;28;20504;-78
2023/04/09 08:18:36;;;;;;;0.80;0.80;;;;;;;;;;5081592;28;20475;-77
2023/04/09 08:21:03;;;;;;;2.60;1.33;;;;;;;;;;5077644;28;20516;-78
2023/04/09 08:23:30;;;;;;;0.80;0.80;;;;;;;;;;5086494;28;20573;-79
2023/04/09 08:25:58;;;;;;;0.70;0.70;;;;;;;;;;5078520;28;20434;-79
2023/04/09 08:28:24;;;;;;;0.80;0.80;;;;;;;;;;5079868;28;20450;-79
2023/04/09 08:30:51;;;;;;;0.80;0.80;;;;;;;;;;5080371;28;20540;-79
2023/04/09 08:33:18;;;;;;;0.73;0.67;;;;;;;;;;5072312;28;20799;-79
2023/04/09 08:35:44;;;;;;;0.70;0.70;;;;;;;;;;5079382;28;20431;-77
2023/04/09 08:38:11;;;;;;;0.80;0.70;;;;;;;;;;5076390;28;20451;-78
2023/04/09 08:40:38;;;;;;;0.80;0.80;;;;;;;;;;5077223;28;20469;-77
2023/04/09 08:43:07;;;;;;;0.80;0.70;;;;;;;;;;5074993;28;20557;-76
2023/04/09 08:45:34;;;;;;;0.93;0.93;;;;;;;;;;5070038;28;20443;-76
2023/04/09 08:48:02;;;;;;;0.80;0.73;;;;;;;;;;5076732;28;20431;-76
2023/04/09 08:50:29;;;;;;;1.23;1.13;;;;;;;;;;5068773;28;20456;-76
2023/04/09 08:52:57;;;;;;;1.20;1.10;;;;;;;;;;5080640;28;20452;-78
2023/04/09 08:55:24;;;;;;;0.73;0.73;;;;;;;;;;5082213;28;20533;-76
2023/04/09 08:57:50;;;;;;;1.00;1.00;;;;;;;;;;5078852;28;20467;-76
2023/04/09 09:00:18;;;;;;;1.10;1.00;;;;;;;;;;5083375;28;20568;-77
2023/04/09 09:03:01;;;;;;;0.80;0.70;;;;;;;;;;5082858;28;20455;-77
2023/04/09 09:05:35;;;;;;;1.10;1.00;;;;;;;;;;5090831;28;21261;-74
2023/04/09 09:08:02;;;;;;;0.70;0.60;;;;;;;;;;5089220;28;20486;-76
2023/04/09 09:10:36;;;;;;;0.80;0.70;;;;;;;;;;5085571;28;20441;-75
2023/04/09 09:13:14;;;;;;;0.70;0.60;;;;;;;;;;5088238;28;20439;-76
2023/04/09 09:15:43;;;;;;;0.77;0.70;;;;;;;;;;5081491;28;20481;-76
2023/04/09 09:18:09;;;;;;;8.73;1.90;;;;;;;;;;5086855;28;20497;-76
2023/04/09 09:20:36;;;;;;;0.73;0.70;;;;;;;;;;5081271;28;20456;-75
2023/04/09 09:23:03;;;;;;;0.90;0.90;;;;;;;;;;5086817;28;20466;-76
2023/04/09 09:25:36;;;;;;;0.70;0.60;;;;;;;;;;5079040;28;20474;-76
2023/04/09 09:28:05;;;;;;;1.37;0.80;;;;;;;;;;5077439;28;20529;-78
2023/04/09 09:30:35;;;;;;;1.03;0.87;;;;;;;;;;5074139;28;20443;-77
2023/04/09 09:33:05;;;;;;;0.70;0.60;;;;;;;;;;5066592;28;20453;-79
2023/04/09 09:35:48;;;;;;;2.60;1.30;;;;;;;;;;5090914;28;20530;-79
2023/04/09 09:38:15;;;;;;;0.70;0.60;;;;;;;;;;5077095;28;20466;-78
2023/04/09 09:40:41;;;;;;;0.70;0.60;;;;;;;;;;5081383;28;20501;-80
2023/04/09 09:43:08;;;;;;;0.70;0.60;;;;;;;;;;5084817;28;20434;-79
2023/04/09 09:45:35;;;;;;;0.70;0.70;;;;;;;;;;5079203;28;20435;-73
2023/04/09 09:48:02;;;;;;;0.70;0.70;;;;;;;;;;5090663;28;20453;-74
2023/04/09 09:50:33;;;;;;;0.83;0.83;;;;;;;;;;5080697;28;20470;-73
2023/04/09 09:53:02;;;;;;;0.70;0.60;;;;;;;;;;5079034;28;20498;-73
2023/04/09 09:55:32;;;;;;;1.10;1.00;;;;;;;;;;5082347;28;20435;-73
2023/04/09 09:58:01;;;;;;;0.90;0.80;;;;;;;;;;5082316;28;20926;-75
2023/04/09 10:00:30;;;;;;;0.73;0.70;;;;;;;;;;5075371;28;20528;-74
2023/04/09 10:03:01;;;;;;;0.80;0.70;;;;;;;;;;5088833;28;20454;-74
2023/04/09 10:05:29;;;;;;;0.70;0.60;;;;;;;;;;5081561;28;20450;-74
2023/04/09 10:07:59;;;;;;;0.70;0.67;;;;;;;;;;5079695;28;20485;-76
2023/04/09 10:10:26;;;;;;;0.70;0.60;;;;;;;;;;5083892;28;20829;-75
2023/04/09 10:12:53;;;;;;;0.70;0.60;;;;;;;;;;5081742;28;20446;-74
2023/04/09 10:15:20;;;;;;;0.70;0.60;;;;;;;;;;5088669;28;20534;-74
2023/04/09 10:17:48;;;;;;;0.70;0.63;;;;;;;;;;5082119;28;20435;-74
2023/04/09 10:20:18;;;;;;;0.83;0.60;;;;;;;;;;5077592;28;20445;-73
2023/04/09 10:22:46;;;;;;;0.93;0.90;;;;;;;;;;5082804;28;20573;-75
2023/04/09 10:25:15;;;;;;;1.23;1.13;;;;;;;;;;5080893;28;20536;-73
2023/04/09 10:27:44;;;;;;;0.70;0.60;;;;;;;;;;5085708;28;20533;-74
2023/04/09 10:30:30;;;;;;;0.70;0.53;;;;;;;;;;5074930;28;20434;-74
2023/04/09 10:33:06;;;;;;;0.80;0.67;;;;;;;;;;5065066;28;20460;-74
2023/04/09 10:35:33;;;;;;;0.80;0.80;;;;;;;;;;5082524;28;20427;-74
2023/04/09 10:38:00;;;;;;;3.57;1.13;;;;;;;;;;5082852;28;20508;-76
2023/04/09 10:40:29;;;;;;;0.70;0.70;;;;;;;;;;5082448;28;20444;-75
2023/04/09 10:42:56;;;;;;;0.70;0.70;;;;;;;;;;5080798;28;20435;-75
2023/04/09 10:45:25;;;;;;;1.23;1.10;;;;;;;;;;5085199;28;20439;-75
2023/04/09 10:47:52;;;;;;;0.80;0.80;;;;;;;;;;5095829;28;20446;-75
2023/04/09 10:50:20;;;;;;;0.70;0.70;;;;;;;;;;5071264;28;20434;-75
2023/04/09 10:52:51;;;;;;;1.03;1.00;;;;;;;;;;5074152;28;20549;-75
2023/04/09 10:55:35;;;;;;;0.80;0.70;;;;;;;;;;5086040;28;20902;-74
2023/04/09 10:58:02;;;;;;;1.33;0.80;;;;;;;;;;5083372;28;20522;-75
2023/04/09 11:00:28;;;;;;;0.73;0.70;;;;;;;;;;5079385;28;20410;-75
2023/04/09 11:03:09;;;;;;;0.70;0.70;;;;;;;;;;5074814;28;20436;-74
2023/04/09 11:05:37;;;;;;;0.80;0.70;;;;;;;;;;5082668;28;20398;-74
2023/04/09 11:08:05;;;;;;;0.70;0.70;;;;;;;;;;5079061;28;20458;-76
2023/04/09 11:10:33;;;;;;;0.80;0.70;;;;;;;;;;5086519;28;20893;-74
2023/04/09 11:13:00;;;;;;;0.77;0.73;;;;;;;;;;5071893;28;20429;-74
2023/04/09 11:15:27;;;;;;;1.47;1.37;;;;;;;;;;5079903;28;20445;-75
2023/04/09 11:17:54;;;;;;;3.10;2.40;;;;;;;;;;5078284;28;20963;-75
2023/04/09 11:20:23;;;;;;;0.70;0.60;;;;;;;;;;5087818;28;20468;-75
2023/04/09 11:22:50;;;;;;;2.00;1.90;;;;;;;;;;5078411;28;20565;-75
2023/04/09 11:25:18;;;;;;;1.40;1.30;;;;;;;;;;5076787;28;20585;-74
2023/04/09 11:27:47;;;;;;;1.07;0.97;;;;;;;;;;5076872;28;20962;-75
2023/04/09 11:30:13;;;;;;;1.30;1.20;;;;;;;;;;5075202;28;20453;-75
2023/04/09 11:32:41;;;;;;;0.87;0.83;;;;;;;;;;5073074;28;20521;-74
2023/04/09 11:35:12;;;;;;;0.80;0.70;;;;;;;;;;5080453;28;20678;-75
2023/04/09 11:37:39;;;;;;;0.87;0.87;;;;;;;;;;5075753;28;20441;-75
2023/04/09 11:40:07;;;;;;;0.90;0.90;;;;;;;;;;5090588;28;20467;-76
2023/04/09 11:42:35;;;;;;;0.80;0.70;;;;;;;;;;5076521;28;20433;-75
2023/04/09 11:45:03;;;;;;;0.80;0.70;;;;;;;;;;5075656;28;20504;-76
2023/04/09 11:47:32;;;;;;;0.70;0.70;;;;;;;;;;5075700;28;20439;-74
2023/04/09 11:49:58;;;;;;;0.80;0.73;;;;;;;;;;5074833;28;20450;-74
2023/04/09 11:52:26;;;;;;;1.10;1.00;;;;;;;;;;5076198;28;20500;-76
2023/04/09 11:54:53;;;;;;;1.13;1.03;;;;;;;;;;5084944;28;20450;-76
2023/04/09 11:57:20;;;;;;;1.00;0.93;;;;;;;;;;5078423;28;20442;-75
2023/04/09 11:59:46;;;;;;;0.80;0.77;;;;;;;;;;5077011;28;20450;-74
2023/04/09 12:02:16;;;;;;;1.10;1.00;;;;;;;;;;5076628;28;20883;-74
2023/04/09 12:04:47;;;;;;;0.70;0.70;;;;;;;;;;5076679;28;20460;-75
2023/04/09 12:07:16;;;;;;;0.70;0.70;;;;;;;;;;5075710;28;20926;-75
2023/04/09 12:09:46;;;;;;;0.70;0.70;;;;;;;;;;5076652;28;20431;-75
2023/04/09 12:12:16;;;;;;;0.90;0.90;;;;;;;;;;5077542;28;20860;-77
2023/04/09 12:14:44;;;;;;;1.33;1.10;;;;;;;;;;5084691;28;20431;-76
2023/04/09 12:17:11;;;;;;;0.80;0.80;;;;;;;;;;5076162;28;20440;-75
2023/04/09 12:19:39;;;;;;;0.70;0.60;;;;;;;;;;5076609;28;20484;-75
2023/04/09 12:22:06;;;;;;;2.20;0.90;;;;;;;;;;5087011;28;20550;-75
2023/04/09 12:24:34;;;;;;;0.77;0.70;;;;;;;;;;5077169;28;20500;-76
2023/04/09 12:27:00;;;;;;;0.80;0.80;;;;;;;;;;5075829;28;20439;-75
2023/04/09 12:29:28;;;;;;;0.80;0.80;;;;;;;;;;5073563;28;20545;-74
2023/04/09 12:31:55;;;;;;;0.80;0.70;;;;;;;;;;5078155;28;20426;-75
2023/04/09 12:34:22;;;;;;;0.70;0.60;;;;;;;;;;5076263;28;20421;-75
2023/04/09 12:36:49;;;;;;;0.70;0.60;;;;;;;;;;5076926;28;20982;-74
2023/04/09 12:39:16;;;;;;;0.80;0.80;;;;;;;;;;5065089;28;20910;-75
2023/04/09 12:41:44;;;;;;;0.80;0.70;;;;;;;;;;5080390;28;20445;-74
2023/04/09 12:44:10;;;;;;;0.90;0.90;;;;;;;;;;5074614;28;20925;-74
2023/04/09 12:46:38;;;;;;;0.80;0.80;;;;;;;;;;5069437;28;20446;-75
2023/04/09 12:49:05;;;;;;;0.70;0.60;;;;;;;;;;5068988;28;20451;-75
2023/04/09 12:51:32;;;;;;;0.70;0.63;;;;;;;;;;5070367;28;20819;-75
2023/04/09 12:54:02;;;;;;;1.23;1.13;;;;;;;;;;5075568;28;20435;-75
2023/04/09 12:56:29;;;;;;;1.00;0.87;;;;;;;;;;5075802;28;20451;-75
2023/04/09 12:58:56;;;;;;;0.90;0.80;;;;;;;;;;5074795;28;20439;-75
2023/04/09 13:01:23;;;;;;;0.70;0.70;;;;;;;;;;5077781;28;20464;-76
2023/04/09 13:03:50;;;;;;;0.80;0.70;;;;;;;;;;5076625;28;20941;-75
2023/04/09 13:06:18;;;;;;;0.80;0.77;;;;;;;;;;5077219;28;20472;-75
2023/04/09 13:08:45;;;;;;;1.37;1.27;;;;;;;;;;5076772;28;20462;-75
2023/04/09 13:11:13;;;;;;;0.83;0.83;;;;;;;;;;5075248;28;20433;-76
2023/04/09 13:13:40;;;;;;;1.27;1.17;;;;;;;;;;5070130;28;20462;-75
2023/04/09 13:16:08;;;;;;;0.80;0.70;;;;;;;;;;5076758;28;20439;-76
2023/04/09 13:18:35;;;;;;;0.70;0.70;;;;;;;;;;5076697;28;20979;-74
2023/04/09 13:21:04;;;;;;;0.77;0.70;;;;;;;;;;5078338;28;20463;-77
2023/04/09 13:23:30;;;;;;;0.80;0.70;;;;;;;;;;5082422;28;21008;-76
2023/04/09 13:25:58;;;;;;;3.43;1.53;;;;;;;;;;5073944;28;20867;-75
2023/04/09 13:28:26;;;;;;;0.70;0.60;;;;;;;;;;5069787;28;20479;-76
2023/04/09 13:30:53;;;;;;;0.93;0.93;;;;;;;;;;5081957;28;20445;-76
2023/04/09 13:33:20;;;;;;;1.03;1.00;;;;;;;;;;5071648;28;21124;-76
2023/04/09 13:35:47;;;;;;;0.80;0.80;;;;;;;;;;5078463;28;20438;-76
2023/04/09 13:38:14;;;;;;;0.83;0.83;;;;;;;;;;5077786;28;20482;-76
2023/04/09 13:40:40;;;;;;;0.80;0.70;;;;;;;;;;5075590;28;20435;-75
2023/04/09 13:43:07;;;;;;;0.80;0.80;;;;;;;;;;5070987;28;20498;-74
2023/04/09 13:45:35;;;;;;;1.40;1.27;;;;;;;;;;5076866;28;20522;-75
2023/04/09 13:48:02;;;;;;;0.70;0.60;;;;;;;;;;5076475;28;20546;-76
2023/04/09 13:50:29;;;;;;;0.80;0.73;;;;;;;;;;5081425;28;20438;-76
2023/04/09 13:52:57;;;;;;;0.70;0.60;;;;;;;;;;5086442;28;20504;-76
2023/04/09 13:55:23;;;;;;;1.33;1.20;;;;;;;;;;5075260;28;20533;-76
2023/04/09 13:57:50;;;;;;;0.70;0.70;;;;;;;;;;5076435;28;20462;-76
2023/04/09 14:00:18;;;;;;;0.77;0.70;;;;;;;;;;5082620;28;20529;-76
2023/04/09 14:02:48;;;;;;;1.67;1.13;;;;;;;;;;5084146;28;20449;-76
2023/04/09 14:05:15;;;;;;;0.80;0.70;;;;;;;;;;5080260;28;20503;-75
2023/04/09 14:07:42;;;;;;;0.70;0.70;;;;;;;;;;5077515;28;20427;-76
2023/04/09 14:10:09;;;;;;;1.07;0.90;;;;;;;;;;5078278;28;20416;-74
2023/04/09 14:12:36;;;;;;;0.77;0.70;;;;;;;;;;5079995;28;20413;-76
2023/04/09 14:15:03;;;;;;;1.30;1.20;;;;;;;;;;5081244;28;20439;-76
2023/04/09 14:17:31;;;;;;;2.93;1.97;;;;;;;;;;5080882;28;20868;-75
2023/04/09 14:19:59;;;;;;;0.80;0.80;;;;;;;;;;5082233;28;20471;-76
2023/04/09 14:22:28;;;;;;;0.80;0.70;;;;;;;;;;5075521;28;21075;-76
2023/04/09 14:24:56;;;;;;;1.10;1.00;;;;;;;;;;5082499;28;20529;-75
2023/04/09 14:27:23;;;;;;;1.03;0.93;;;;;;;;;;5081625;28;20425;-75
2023/04/09 14:29:50;;;;;;;1.83;1.63;;;;;;;;;;5080882;28;20898;-75
2023/04/09 14:32:19;;;;;;;0.70;0.70;;;;;;;;;;5079915;28;20427;-76
2023/04/09 14:34:47;;;;;;;1.40;1.27;;;;;;;;;;5082396;28;20421;-75
2023/04/09 14:37:15;;;;;;;4.07;1.37;;;;;;;;;;5080625;28;20555;-76
2023/04/09 14:39:42;;;;;;;0.93;0.93;;;;;;;;;;5071022;28;20454;-75
2023/04/09 14:42:08;;;;;;;0.70;0.70;;;;;;;;;;5080591;28;20438;-76
2023/04/09 14:44:35;;;;;;;0.70;0.70;;;;;;;;;;5075711;28;21003;-76
2023/04/09 14:47:02;;;;;;;0.80;0.70;;;;;;;;;;5079876;28;20449;-76
2023/04/09 14:49:29;;;;;;;0.70;0.70;;;;;;;;;;5079240;28;20418;-75
2023/04/09 14:51:55;;;;;;;1.00;1.00;;;;;;;;;;5080992;28;20532;-75